sensor_id;sensor_type;location;lat;lon;timestamp;pressure;altitude;pressure_sealevel;temperature;humidity
22651;BME280;11492;42.646;23.400;2023-07-16T00:02:23;95255.84;;;24.92;65.99
22651;BME280;11492;42.646;23.400;2023-07-16T00:04:48;95258.50;;;24.92;65.72
22651;BME280;11492;42.646;23.400;2023-07-16T00:07:14;95247.66;;;24.93;65.26
22651;BME280;11492;42.646;23.400;2023-07-16T00:09:39;95249.47;;;24.88;65.12
22651;BME280;11492;42.646;23.400;2023-07-16T00:12:05;95242.59;;;24.87;65.30
22651;BME280;11492;42.646;23.400;2023-07-16T00:14:30;95251.88;;;24.89;65.07
22651;BME280;11492;42.646;23.400;2023-07-16T00:16:57;95246.06;;;24.92;64.92
22651;BME280;11492;42.646;23.400;2023-07-16T00:19:23;95248.44;;;24.94;64.66
22651;BME280;11492;42.646;23.400;2023-07-16T00:21:48;95249.00;;;24.96;64.87
22651;BME280;11492;42.646;23.400;2023-07-16T00:24:13;95248.16;;;24.80;65.12
22651;BME280;11492;42.646;23.400;2023-07-16T00:26:39;95246.84;;;24.93;65.00
22651;BME280;11492;42.646;23.400;2023-07-16T00:29:04;95242.34;;;24.93;64.84
22651;BME280;11492;42.646;23.400;2023-07-16T00:31:30;95247.91;;;24.87;64.53
22651;BME280;11492;42.646;23.400;2023-07-16T00:33:55;95238.88;;;24.83;65.04
22651;BME280;11492;42.646;23.400;2023-07-16T00:36:21;95247.38;;;24.90;64.82
22651;BME280;11492;42.646;23.400;2023-07-16T00:38:46;95247.91;;;24.87;64.75
22651;BME280;11492;42.646;23.400;2023-07-16T00:41:15;95246.84;;;24.88;64.80
22651;BME280;11492;42.646;23.400;2023-07-16T00:43:41;95248.94;;;24.81;64.94
22651;BME280;11492;42.646;23.400;2023-07-16T00:46:08;95249.72;;;24.81;64.86
22651;BME280;11492;42.646;23.400;2023-07-16T00:48:34;95247.81;;;24.72;65.31
22651;BME280;11492;42.646;23.400;2023-07-16T00:51:00;95245.13;;;24.62;65.70
22651;BME280;11492;42.646;23.400;2023-07-16T00:53:26;95248.00;;;24.56;65.83
22651;BME280;11492;42.646;23.400;2023-07-16T00:55:52;95248.28;;;24.54;65.79
22651;BME280;11492;42.646;23.400;2023-07-16T00:58:18;95251.66;;;24.45;66.19
22651;BME280;11492;42.646;23.400;2023-07-16T01:00:44;95250.06;;;24.44;66.05
22651;BME280;11492;42.646;23.400;2023-07-16T01:03:12;95247.94;;;24.41;66.29
22651;BME280;11492;42.646;23.400;2023-07-16T01:08:32;95244.47;;;24.36;66.29
22651;BME280;11492;42.646;23.400;2023-07-16T01:11:01;95245.03;;;24.38;66.44
22651;BME280;11492;42.646;23.400;2023-07-16T01:13:27;95246.84;;;24.37;66.41
22651;BME280;11492;42.646;23.400;2023-07-16T01:15:54;95246.03;;;24.32;66.38
22651;BME280;11492;42.646;23.400;2023-07-16T01:18:19;95238.66;;;24.34;66.25
22651;BME280;11492;42.646;23.400;2023-07-16T01:20:44;95241.97;;;24.15;66.71
22651;BME280;11492;42.646;23.400;2023-07-16T01:28:38;95242.75;;;24.15;66.45
22651;BME280;11492;42.646;23.400;2023-07-16T01:31:10;95245.44;;;24.20;66.42
22651;BME280;11492;42.646;23.400;2023-07-16T01:33:37;95239.53;;;24.08;66.63
22651;BME280;11492;42.646;23.400;2023-07-16T01:36:04;95239.00;;;24.06;66.95
22651;BME280;11492;42.646;23.400;2023-07-16T01:38:31;95239.00;;;24.06;67.25
22651;BME280;11492;42.646;23.400;2023-07-16T01:40:56;95241.66;;;24.06;67.11
22651;BME280;11492;42.646;23.400;2023-07-16T01:43:22;95244.00;;;24.03;67.42
22651;BME280;11492;42.646;23.400;2023-07-16T01:45:47;95248.19;;;23.99;67.46
22651;BME280;11492;42.646;23.400;2023-07-16T01:48:32;95245.03;;;24.02;67.35
22651;BME280;11492;42.646;23.400;2023-07-16T01:53:24;95244.03;;;24.08;67.24
22651;BME280;11492;42.646;23.400;2023-07-16T01:55:49;95246.97;;;24.11;67.26
22651;BME280;11492;42.646;23.400;2023-07-16T01:58:15;95248.00;;;24.10;67.23
22651;BME280;11492;42.646;23.400;2023-07-16T02:00:40;95244.28;;;24.06;67.31
22651;BME280;11492;42.646;23.400;2023-07-16T02:03:06;95239.53;;;24.08;67.24
22651;BME280;11492;42.646;23.400;2023-07-16T02:05:31;95244.81;;;24.08;67.60
22651;BME280;11492;42.646;23.400;2023-07-16T02:07:57;95247.94;;;24.05;67.41
22651;BME280;11492;42.646;23.400;2023-07-16T02:10:22;95247.91;;;24.00;67.36
22651;BME280;11492;42.646;23.400;2023-07-16T02:12:48;95245.81;;;23.98;67.38
22651;BME280;11492;42.646;23.400;2023-07-16T02:15:13;95238.59;;;23.88;66.94
22651;BME280;11492;42.646;23.400;2023-07-16T02:17:39;95247.63;;;23.92;66.86
22651;BME280;11492;42.646;23.400;2023-07-16T02:20:05;95251.50;;;23.85;67.31
22651;BME280;11492;42.646;23.400;2023-07-16T02:22:31;95247.00;;;23.85;67.07
22651;BME280;11492;42.646;23.400;2023-07-16T02:24:56;95264.16;;;23.83;67.46
22651;BME280;11492;42.646;23.400;2023-07-16T02:27:22;95255.16;;;23.79;67.71
22651;BME280;11492;42.646;23.400;2023-07-16T02:29:47;95243.50;;;23.70;67.91
22651;BME280;11492;42.646;23.400;2023-07-16T02:32:13;95248.22;;;23.68;67.92
22651;BME280;11492;42.646;23.400;2023-07-16T02:34:38;95250.28;;;23.61;68.45
22651;BME280;11492;42.646;23.400;2023-07-16T02:37:04;95259.44;;;23.54;68.34
22651;BME280;11492;42.646;23.400;2023-07-16T02:39:29;95259.66;;;23.48;68.63
22651;BME280;11492;42.646;23.400;2023-07-16T02:41:54;95263.34;;;23.47;68.79
22651;BME280;11492;42.646;23.400;2023-07-16T02:44:20;95250.03;;;23.37;69.41
22651;BME280;11492;42.646;23.400;2023-07-16T02:46:45;95252.66;;;23.37;69.48
22651;BME280;11492;42.646;23.400;2023-07-16T02:49:11;95252.66;;;23.37;69.31
22651;BME280;11492;42.646;23.400;2023-07-16T02:51:36;95250.56;;;23.39;69.49
22651;BME280;11492;42.646;23.400;2023-07-16T02:54:02;95253.16;;;23.34;69.67
22651;BME280;11492;42.646;23.400;2023-07-16T02:56:27;95254.81;;;23.40;69.67
22651;BME280;11492;42.646;23.400;2023-07-16T02:58:53;95255.41;;;23.47;69.52
22651;BME280;11492;42.646;23.400;2023-07-16T03:01:18;95248.19;;;23.37;68.90
22651;BME280;11492;42.646;23.400;2023-07-16T03:03:44;95252.81;;;23.51;68.59
22651;BME280;11492;42.646;23.400;2023-07-16T03:06:09;95256.56;;;23.55;68.94
22651;BME280;11492;42.646;23.400;2023-07-16T03:08:35;95255.56;;;23.61;69.01
22651;BME280;11492;42.646;23.400;2023-07-16T03:11:00;95261.69;;;23.72;68.40
22651;BME280;11492;42.646;23.400;2023-07-16T03:13:25;95258.28;;;23.71;67.61
22651;BME280;11492;42.646;23.400;2023-07-16T03:15:51;95264.59;;;23.70;67.62
22651;BME280;11492;42.646;23.400;2023-07-16T03:18:20;95251.63;;;23.69;67.91
22651;BME280;11492;42.646;23.400;2023-07-16T03:20:45;95264.88;;;23.74;67.39
22651;BME280;11492;42.646;23.400;2023-07-16T03:23:11;95266.22;;;23.76;68.03
22651;BME280;11492;42.646;23.400;2023-07-16T03:25:36;95265.97;;;23.77;67.66
22651;BME280;11492;42.646;23.400;2023-07-16T03:28:02;95268.06;;;23.76;67.79
22651;BME280;11492;42.646;23.400;2023-07-16T03:30:27;95264.09;;;23.73;67.56
22651;BME280;11492;42.646;23.400;2023-07-16T03:32:52;95273.06;;;23.72;67.56
22651;BME280;11492;42.646;23.400;2023-07-16T03:35:18;95269.88;;;23.75;67.91
22651;BME280;11492;42.646;23.400;2023-07-16T03:37:44;95271.50;;;23.76;67.79
22651;BME280;11492;42.646;23.400;2023-07-16T03:40:17;95265.19;;;23.77;68.04
22651;BME280;11492;42.646;23.400;2023-07-16T03:42:43;95276.47;;;23.73;68.30
22651;BME280;11492;42.646;23.400;2023-07-16T03:45:10;95277.00;;;23.75;67.78
22651;BME280;11492;42.646;23.400;2023-07-16T03:47:36;95282.06;;;23.76;68.11
22651;BME280;11492;42.646;23.400;2023-07-16T03:50:02;95279.13;;;23.73;68.50
22651;BME280;11492;42.646;23.400;2023-07-16T03:52:27;95279.91;;;23.73;68.28
22651;BME280;11492;42.646;23.400;2023-07-16T03:54:54;95282.50;;;23.68;68.87
22651;BME280;11492;42.646;23.400;2023-07-16T03:57:19;95281.22;;;23.71;68.99
22651;BME280;11492;42.646;23.400;2023-07-16T03:59:45;95279.13;;;23.73;68.72
22651;BME280;11492;42.646;23.400;2023-07-16T04:02:10;95281.50;;;23.74;68.69
22651;BME280;11492;42.646;23.400;2023-07-16T04:04:36;95282.91;;;23.81;68.78
22651;BME280;11492;42.646;23.400;2023-07-16T04:07:01;95281.84;;;23.82;68.56
22651;BME280;11492;42.646;23.400;2023-07-16T04:09:27;95283.91;;;23.80;68.81
22651;BME280;11492;42.646;23.400;2023-07-16T04:11:52;95279.16;;;23.77;68.96
22651;BME280;11492;42.646;23.400;2023-07-16T04:14:18;95287.38;;;23.81;68.89
22651;BME280;11492;42.646;23.400;2023-07-16T04:16:43;95291.34;;;23.83;68.48
22651;BME280;11492;42.646;23.400;2023-07-16T04:19:09;95283.69;;;23.82;69.06
22651;BME280;11492;42.646;23.400;2023-07-16T04:21:35;95293.50;;;23.86;68.66
22651;BME280;11492;42.646;23.400;2023-07-16T04:24:02;95280.00;;;23.83;68.35
22651;BME280;11492;42.646;23.400;2023-07-16T04:26:27;95289.22;;;23.85;68.83
22651;BME280;11492;42.646;23.400;2023-07-16T04:28:53;95292.72;;;23.91;68.41
22651;BME280;11492;42.646;23.400;2023-07-16T04:31:18;95295.59;;;23.89;68.28
22651;BME280;11492;42.646;23.400;2023-07-16T04:33:43;95296.47;;;24.00;67.03
22651;BME280;11492;42.646;23.400;2023-07-16T04:36:09;95300.72;;;24.00;66.54
22651;BME280;11492;42.646;23.400;2023-07-16T04:38:34;95304.44;;;24.04;66.46
22651;BME280;11492;42.646;23.400;2023-07-16T04:40:59;95306.31;;;24.09;66.28
22651;BME280;11492;42.646;23.400;2023-07-16T04:43:25;95307.94;;;24.10;66.15
22651;BME280;11492;42.646;23.400;2023-07-16T04:45:50;95312.19;;;24.16;65.52
22651;BME280;11492;42.646;23.400;2023-07-16T04:48:16;95305.63;;;24.18;65.63
22651;BME280;11492;42.646;23.400;2023-07-16T04:50:41;95301.16;;;24.19;65.59
22651;BME280;11492;42.646;23.400;2023-07-16T04:53:07;95304.84;;;24.18;65.86
22651;BME280;11492;42.646;23.400;2023-07-16T04:55:39;95294.31;;;24.23;65.51
22651;BME280;11492;42.646;23.400;2023-07-16T04:58:05;95305.44;;;24.29;65.73
22651;BME280;11492;42.646;23.400;2023-07-16T05:00:33;95315.25;;;24.34;65.38
22651;BME280;11492;42.646;23.400;2023-07-16T05:02:58;95309.44;;;24.37;65.36
22651;BME280;11492;42.646;23.400;2023-07-16T05:05:24;95309.25;;;24.43;65.04
22651;BME280;11492;42.646;23.400;2023-07-16T05:07:49;95315.84;;;24.46;65.21
22651;BME280;11492;42.646;23.400;2023-07-16T05:10:15;95302.09;;;24.44;65.66
22651;BME280;11492;42.646;23.400;2023-07-16T05:12:40;95310.88;;;24.54;65.19
22651;BME280;11492;42.646;23.400;2023-07-16T05:15:06;95315.91;;;24.55;65.31
22651;BME280;11492;42.646;23.400;2023-07-16T05:17:32;95314.34;;;24.59;65.71
22651;BME280;11492;42.646;23.400;2023-07-16T05:19:57;95320.97;;;24.67;65.36
22651;BME280;11492;42.646;23.400;2023-07-16T05:22:23;95318.63;;;24.70;64.34
22651;BME280;11492;42.646;23.400;2023-07-16T05:24:48;95315.44;;;24.68;64.54
22651;BME280;11492;42.646;23.400;2023-07-16T05:27:13;95315.78;;;24.77;64.01
22651;BME280;11492;42.646;23.400;2023-07-16T05:29:39;95311.78;;;24.74;64.05
22651;BME280;11492;42.646;23.400;2023-07-16T05:32:04;95310.50;;;24.77;63.76
22651;BME280;11492;42.646;23.400;2023-07-16T05:34:30;95315.53;;;24.83;63.83
22651;BME280;11492;42.646;23.400;2023-07-16T05:36:55;95310.53;;;24.86;63.80
22651;BME280;11492;42.646;23.400;2023-07-16T05:39:21;95320.88;;;24.93;63.90
22651;BME280;11492;42.646;23.400;2023-07-16T05:41:47;95311.88;;;24.94;63.98
22651;BME280;11492;42.646;23.400;2023-07-16T05:44:12;95319.63;;;25.05;64.06
22651;BME280;11492;42.646;23.400;2023-07-16T05:46:38;95319.38;;;25.11;63.88
22651;BME280;11492;42.646;23.400;2023-07-16T05:49:03;95311.47;;;25.16;63.37
22651;BME280;11492;42.646;23.400;2023-07-16T05:51:29;95329.44;;;25.24;62.91
22651;BME280;11492;42.646;23.400;2023-07-16T05:53:54;95323.41;;;25.33;62.44
22651;BME280;11492;42.646;23.400;2023-07-16T05:56:20;95330.06;;;25.41;62.42
22651;BME280;11492;42.646;23.400;2023-07-16T05:58:45;95331.69;;;25.47;62.22
22651;BME280;11492;42.646;23.400;2023-07-16T06:01:10;95331.16;;;25.54;62.31
22651;BME280;11492;42.646;23.400;2023-07-16T06:03:36;95324.00;;;25.60;62.07
22651;BME280;11492;42.646;23.400;2023-07-16T06:06:01;95317.94;;;25.69;61.21
22651;BME280;11492;42.646;23.400;2023-07-16T06:08:27;95325.38;;;25.87;60.98
22651;BME280;11492;42.646;23.400;2023-07-16T06:10:52;95321.66;;;25.98;60.89
22651;BME280;11492;42.646;23.400;2023-07-16T06:13:17;95321.69;;;26.07;61.04
22651;BME280;11492;42.646;23.400;2023-07-16T06:15:43;95314.81;;;26.06;61.17
22651;BME280;11492;42.646;23.400;2023-07-16T06:18:09;95328.84;;;26.22;60.25
22651;BME280;11492;42.646;23.400;2023-07-16T06:20:34;95330.19;;;26.29;59.55
22651;BME280;11492;42.646;23.400;2023-07-16T06:23:00;95317.72;;;26.34;58.74
22651;BME280;11492;42.646;23.400;2023-07-16T06:25:25;95330.16;;;26.44;58.63
22651;BME280;11492;42.646;23.400;2023-07-16T06:27:51;95317.44;;;26.46;58.08
22651;BME280;11492;42.646;23.400;2023-07-16T06:30:16;95320.06;;;26.55;58.21
22651;BME280;11492;42.646;23.400;2023-07-16T06:32:42;95320.09;;;26.65;57.51
22651;BME280;11492;42.646;23.400;2023-07-16T06:35:08;95310.00;;;26.67;57.43
22651;BME280;11492;42.646;23.400;2023-07-16T06:37:33;95321.88;;;26.79;57.40
22651;BME280;11492;42.646;23.400;2023-07-16T06:39:59;95313.91;;;26.84;56.13
22651;BME280;11492;42.646;23.400;2023-07-16T06:42:24;95316.03;;;26.92;55.86
22651;BME280;11492;42.646;23.400;2023-07-16T06:44:49;95313.59;;;26.96;56.07
22651;BME280;11492;42.646;23.400;2023-07-16T06:47:15;95309.34;;;27.04;56.64
22651;BME280;11492;42.646;23.400;2023-07-16T06:49:41;95308.78;;;27.12;56.72
22651;BME280;11492;42.646;23.400;2023-07-16T06:52:06;95307.72;;;27.13;56.09
22651;BME280;11492;42.646;23.400;2023-07-16T06:54:32;95314.03;;;27.22;55.74
22651;BME280;11492;42.646;23.400;2023-07-16T06:56:58;95299.72;;;27.23;55.19
22651;BME280;11492;42.646;23.400;2023-07-16T06:59:23;95303.13;;;27.33;55.79
22651;BME280;11492;42.646;23.400;2023-07-16T07:01:48;95309.97;;;27.44;55.65
22651;BME280;11492;42.646;23.400;2023-07-16T07:04:14;95305.94;;;27.52;55.44
22651;BME280;11492;42.646;23.400;2023-07-16T07:06:40;95318.31;;;27.66;55.34
22651;BME280;11492;42.646;23.400;2023-07-16T07:09:05;95310.56;;;27.79;54.60
22651;BME280;11492;42.646;23.400;2023-07-16T07:11:31;95312.34;;;27.88;53.66
22651;BME280;11492;42.646;23.400;2023-07-16T07:13:56;95305.97;;;27.89;53.15
22651;BME280;11492;42.646;23.400;2023-07-16T07:16:23;95306.75;;;27.95;53.39
22651;BME280;11492;42.646;23.400;2023-07-16T07:18:48;95305.06;;;28.04;53.25
22651;BME280;11492;42.646;23.400;2023-07-16T07:21:14;95309.19;;;28.19;53.19
22651;BME280;11492;42.646;23.400;2023-07-16T07:23:40;95302.75;;;28.25;52.92
22651;BME280;11492;42.646;23.400;2023-07-16T07:26:05;95309.56;;;28.36;52.12
22651;BME280;11492;42.646;23.400;2023-07-16T07:28:31;95306.84;;;28.46;52.38
22651;BME280;11492;42.646;23.400;2023-07-16T07:30:57;95298.03;;;28.50;52.58
22651;BME280;11492;42.646;23.400;2023-07-16T07:33:22;95298.66;;;28.65;51.73
22651;BME280;11492;42.646;23.400;2023-07-16T07:35:48;95305.41;;;28.81;50.84
22651;BME280;11492;42.646;23.400;2023-07-16T07:38:13;95310.56;;;28.96;50.50
22651;BME280;11492;42.646;23.400;2023-07-16T07:40:39;95314.44;;;29.08;50.48
22651;BME280;11492;42.646;23.400;2023-07-16T07:43:04;95306.13;;;29.14;50.08
22651;BME280;11492;42.646;23.400;2023-07-16T07:45:29;95297.28;;;29.19;50.30
22651;BME280;11492;42.646;23.400;2023-07-16T07:47:55;95308.38;;;29.26;50.57
22651;BME280;11492;42.646;23.400;2023-07-16T07:50:20;95303.19;;;29.34;50.20
22651;BME280;11492;42.646;23.400;2023-07-16T07:52:46;95300.38;;;29.44;50.30
22651;BME280;11492;42.646;23.400;2023-07-16T07:55:11;95308.28;;;29.54;49.92
22651;BME280;11492;42.646;23.400;2023-07-16T07:57:37;95305.88;;;29.70;49.70
22651;BME280;11492;42.646;23.400;2023-07-16T08:00:02;95305.56;;;29.77;49.13
22651;BME280;11492;42.646;23.400;2023-07-16T08:02:28;95306.97;;;29.87;48.88
22651;BME280;11492;42.646;23.400;2023-07-16T08:04:54;95309.69;;;30.01;49.14
22651;BME280;11492;42.646;23.400;2023-07-16T08:07:20;95310.66;;;30.41;47.70
22651;BME280;11492;42.646;23.400;2023-07-16T08:09:46;95300.00;;;30.85;46.70
22651;BME280;11492;42.646;23.400;2023-07-16T08:12:13;95299.63;;;31.18;46.03
22651;BME280;11492;42.646;23.400;2023-07-16T08:14:38;95302.31;;;31.80;44.99
22651;BME280;11492;42.646;23.400;2023-07-16T08:17:04;95304.59;;;32.29;44.52
22651;BME280;11492;42.646;23.400;2023-07-16T08:19:30;95303.81;;;32.72;43.27
22651;BME280;11492;42.646;23.400;2023-07-16T08:21:55;95305.59;;;33.14;42.46
22651;BME280;11492;42.646;23.400;2023-07-16T08:24:20;95296.72;;;33.44;41.94
22651;BME280;11492;42.646;23.400;2023-07-16T08:26:46;95309.19;;;33.57;41.23
22651;BME280;11492;42.646;23.400;2023-07-16T08:29:11;95305.28;;;33.62;41.37
22651;BME280;11492;42.646;23.400;2023-07-16T08:31:37;95301.03;;;33.95;41.15
22651;BME280;11492;42.646;23.400;2023-07-16T08:34:02;95311.50;;;34.13;40.04
22651;BME280;11492;42.646;23.400;2023-07-16T08:36:28;95304.84;;;34.52;39.80
22651;BME280;11492;42.646;23.400;2023-07-16T08:38:53;95305.84;;;34.93;39.22
22651;BME280;11492;42.646;23.400;2023-07-16T08:41:18;95296.19;;;35.00;38.60
22651;BME280;11492;42.646;23.400;2023-07-16T08:43:47;95309.31;;;35.10;38.49
22651;BME280;11492;42.646;23.400;2023-07-16T08:46:15;95296.81;;;35.14;39.27
22651;BME280;11492;42.646;23.400;2023-07-16T08:48:40;95304.47;;;35.24;39.40
22651;BME280;11492;42.646;23.400;2023-07-16T08:51:06;95305.91;;;35.30;38.18
22651;BME280;11492;42.646;23.400;2023-07-16T08:53:32;95300.63;;;35.33;37.71
22651;BME280;11492;42.646;23.400;2023-07-16T08:55:58;95295.03;;;35.46;38.06
22651;BME280;11492;42.646;23.400;2023-07-16T08:58:24;95299.97;;;35.73;38.08
22651;BME280;11492;42.646;23.400;2023-07-16T09:00:51;95301.44;;;36.11;37.71
22651;BME280;11492;42.646;23.400;2023-07-16T09:03:17;95293.59;;;36.17;36.81
22651;BME280;11492;42.646;23.400;2023-07-16T09:05:44;95297.28;;;36.33;37.59
22651;BME280;11492;42.646;23.400;2023-07-16T09:08:10;95304.59;;;36.13;35.91
22651;BME280;11492;42.646;23.400;2023-07-16T09:10:36;95287.78;;;36.15;37.31
22651;BME280;11492;42.646;23.400;2023-07-16T09:13:02;95290.00;;;36.34;37.45
22651;BME280;11492;42.646;23.400;2023-07-16T09:15:28;95289.53;;;36.32;36.40
22651;BME280;11492;42.646;23.400;2023-07-16T09:17:54;95283.41;;;36.43;37.05
22651;BME280;11492;42.646;23.400;2023-07-16T09:20:20;95289.50;;;36.40;36.68
22651;BME280;11492;42.646;23.400;2023-07-16T09:22:47;95279.66;;;36.56;36.38
22651;BME280;11492;42.646;23.400;2023-07-16T09:25:12;95290.03;;;36.77;36.53
22651;BME280;11492;42.646;23.400;2023-07-16T09:27:38;95287.78;;;36.79;36.25
22651;BME280;11492;42.646;23.400;2023-07-16T09:30:05;95287.56;;;36.72;36.11
22651;BME280;11492;42.646;23.400;2023-07-16T09:32:35;95285.16;;;36.91;35.56
22651;BME280;11492;42.646;23.400;2023-07-16T09:35:12;95286.75;;;36.92;36.46
22651;BME280;11492;42.646;23.400;2023-07-16T09:37:37;95279.53;;;36.84;35.93
22651;BME280;11492;42.646;23.400;2023-07-16T09:40:05;95278.53;;;36.89;36.67
22651;BME280;11492;42.646;23.400;2023-07-16T09:42:38;95277.56;;;37.17;36.59
22651;BME280;11492;42.646;23.400;2023-07-16T09:45:06;95267.13;;;37.27;36.28
22651;BME280;11492;42.646;23.400;2023-07-16T09:47:33;95279.59;;;37.31;35.92
22651;BME280;11492;42.646;23.400;2023-07-16T09:49:59;95273.09;;;37.44;35.91
22651;BME280;11492;42.646;23.400;2023-07-16T09:52:26;95269.69;;;37.59;35.86
22651;BME280;11492;42.646;23.400;2023-07-16T09:54:55;95266.06;;;37.67;34.76
22651;BME280;11492;42.646;23.400;2023-07-16T09:57:22;95271.69;;;37.62;35.50
22651;BME280;11492;42.646;23.400;2023-07-16T09:59:49;95269.91;;;37.77;36.11
22651;BME280;11492;42.646;23.400;2023-07-16T10:02:17;95262.81;;;37.14;36.55
22651;BME280;11492;42.646;23.400;2023-07-16T10:04:43;95260.25;;;37.06;36.42
22651;BME280;11492;42.646;23.400;2023-07-16T10:07:20;95262.09;;;36.38;38.03
22651;BME280;11492;42.646;23.400;2023-07-16T10:09:54;95260.94;;;35.87;38.04
22651;BME280;11492;42.646;23.400;2023-07-16T10:12:23;95259.78;;;35.48;39.02
22651;BME280;11492;42.646;23.400;2023-07-16T10:14:50;95247.75;;;35.17;39.46
22651;BME280;11492;42.646;23.400;2023-07-16T10:17:21;95246.44;;;34.86;39.61
22651;BME280;11492;42.646;23.400;2023-07-16T10:22:15;95238.81;;;35.05;40.31
22651;BME280;11492;42.646;23.400;2023-07-16T10:24:41;95254.41;;;35.19;40.29
22651;BME280;11492;42.646;23.400;2023-07-16T10:27:07;95242.00;;;35.27;39.75
22651;BME280;11492;42.646;23.400;2023-07-16T10:29:32;95233.22;;;35.38;40.24
22651;BME280;11492;42.646;23.400;2023-07-16T10:31:58;95228.34;;;35.40;39.44
22651;BME280;11492;42.646;23.400;2023-07-16T10:34:24;95231.31;;;35.67;39.33
22651;BME280;11492;42.646;23.400;2023-07-16T10:36:51;95229.50;;;35.99;38.75
22651;BME280;11492;42.646;23.400;2023-07-16T10:39:16;95229.34;;;35.96;38.69
22651;BME280;11492;42.646;23.400;2023-07-16T10:41:42;95234.50;;;36.41;38.17
22651;BME280;11492;42.646;23.400;2023-07-16T10:44:08;95233.00;;;36.75;37.11
22651;BME280;11492;42.646;23.400;2023-07-16T10:46:36;95226.75;;;36.95;37.08
22651;BME280;11492;42.646;23.400;2023-07-16T10:49:01;95238.69;;;37.17;36.11
22651;BME280;11492;42.646;23.400;2023-07-16T10:51:27;95225.63;;;37.08;35.98
22651;BME280;11492;42.646;23.400;2023-07-16T10:53:55;95216.44;;;36.97;36.15
22651;BME280;11492;42.646;23.400;2023-07-16T10:56:21;95228.91;;;37.25;36.84
22651;BME280;11492;42.646;23.400;2023-07-16T10:58:47;95229.72;;;37.37;35.45
22651;BME280;11492;42.646;23.400;2023-07-16T11:01:12;95218.44;;;37.59;35.69
22651;BME280;11492;42.646;23.400;2023-07-16T11:03:38;95218.66;;;37.54;34.65
22651;BME280;11492;42.646;23.400;2023-07-16T11:06:08;95227.75;;;37.61;33.90
22651;BME280;11492;42.646;23.400;2023-07-16T11:08:33;95224.00;;;37.77;34.26
22651;BME280;11492;42.646;23.400;2023-07-16T11:10:59;95227.13;;;37.91;34.40
22651;BME280;11492;42.646;23.400;2023-07-16T11:13:28;95216.28;;;38.03;33.40
22651;BME280;11492;42.646;23.400;2023-07-16T11:15:54;95220.44;;;38.12;33.34
22651;BME280;11492;42.646;23.400;2023-07-16T11:18:23;95204.81;;;38.06;32.36
22651;BME280;11492;42.646;23.400;2023-07-16T11:20:52;95205.47;;;38.03;32.71
22651;BME280;11492;42.646;23.400;2023-07-16T11:23:18;95207.75;;;38.01;33.28
22651;BME280;11492;42.646;23.400;2023-07-16T11:25:48;95198.69;;;37.82;32.93
22651;BME280;11492;42.646;23.400;2023-07-16T11:28:14;95203.91;;;38.02;33.44
22651;BME280;11492;42.646;23.400;2023-07-16T11:30:39;95200.50;;;38.17;32.92
22651;BME280;11492;42.646;23.400;2023-07-16T11:33:10;95196.56;;;38.14;32.39
22651;BME280;11492;42.646;23.400;2023-07-16T11:35:36;95215.16;;;38.16;32.27
22651;BME280;11492;42.646;23.400;2023-07-16T11:38:02;95200.50;;;38.17;32.83
22651;BME280;11492;42.646;23.400;2023-07-16T11:40:29;95205.22;;;38.08;32.02
22651;BME280;11492;42.646;23.400;2023-07-16T11:42:54;95197.81;;;38.17;32.30
22651;BME280;11492;42.646;23.400;2023-07-16T11:45:22;95196.34;;;38.34;32.70
22651;BME280;11492;42.646;23.400;2023-07-16T11:47:50;95191.31;;;38.48;32.78
22651;BME280;11492;42.646;23.400;2023-07-16T11:50:17;95198.44;;;38.68;32.85
22651;BME280;11492;42.646;23.400;2023-07-16T11:52:42;95196.78;;;38.78;32.22
22651;BME280;11492;42.646;23.400;2023-07-16T11:55:08;95190.34;;;38.83;31.96
22651;BME280;11492;42.646;23.400;2023-07-16T11:57:34;95196.63;;;38.71;31.99
22651;BME280;11492;42.646;23.400;2023-07-16T12:00:01;95183.00;;;38.68;31.87
22651;BME280;11492;42.646;23.400;2023-07-16T12:02:26;95184.22;;;38.70;31.38
22651;BME280;11492;42.646;23.400;2023-07-16T12:04:54;95186.59;;;39.02;31.13
22651;BME280;11492;42.646;23.400;2023-07-16T12:07:51;95178.56;;;39.06;30.27
22651;BME280;11492;42.646;23.400;2023-07-16T12:10:17;95177.88;;;39.09;30.81
22651;BME280;11492;42.646;23.400;2023-07-16T12:12:42;95182.13;;;39.25;30.33
22651;BME280;11492;42.646;23.400;2023-07-16T12:15:08;95176.56;;;39.03;30.81
22651;BME280;11492;42.646;23.400;2023-07-16T12:17:34;95182.66;;;39.00;31.08
22651;BME280;11492;42.646;23.400;2023-07-16T12:20:00;95183.69;;;39.11;30.92
22651;BME280;11492;42.646;23.400;2023-07-16T12:22:27;95178.88;;;39.35;30.87
22651;BME280;11492;42.646;23.400;2023-07-16T12:24:52;95170.00;;;39.53;30.37
22651;BME280;11492;42.646;23.400;2023-07-16T12:27:18;95177.34;;;39.19;29.82
22651;BME280;11492;42.646;23.400;2023-07-16T12:29:44;95180.59;;;39.43;30.27
22651;BME280;11492;42.646;23.400;2023-07-16T12:32:10;95174.63;;;39.52;30.08
22651;BME280;11492;42.646;23.400;2023-07-16T12:34:35;95180.84;;;39.53;29.07
22651;BME280;11492;42.646;23.400;2023-07-16T12:37:01;95174.50;;;39.30;29.44
22651;BME280;11492;42.646;23.400;2023-07-16T12:39:26;95172.44;;;39.24;29.32
22651;BME280;11492;42.646;23.400;2023-07-16T12:41:52;95160.22;;;39.15;29.05
22651;BME280;11492;42.646;23.400;2023-07-16T12:44:17;95157.38;;;39.08;29.03
22651;BME280;11492;42.646;23.400;2023-07-16T12:46:42;95152.56;;;39.01;29.46
22651;BME280;11492;42.646;23.400;2023-07-16T12:49:08;95153.28;;;38.98;29.41
22651;BME280;11492;42.646;23.400;2023-07-16T12:51:33;95154.31;;;38.94;28.69
22651;BME280;11492;42.646;23.400;2023-07-16T12:53:59;95152.91;;;38.54;29.71
22651;BME280;11492;42.646;23.400;2023-07-16T12:56:26;95156.75;;;38.69;29.72
22651;BME280;11492;42.646;23.400;2023-07-16T12:58:51;95150.22;;;38.69;28.99